sensor_id;sensor_type;location;lat;lon;timestamp;temperature;humidity
26254;DHT22;53339;51.378;0.094;2022-07-22T00:00:05;19.60;63.70
26254;DHT22;53339;51.378;0.094;2022-07-22T00:02:33;19.60;63.80
26254;DHT22;53339;51.378;0.094;2022-07-22T00:05:01;19.60;63.90
26254;DHT22;53339;51.378;0.094;2022-07-22T00:07:28;19.50;64.00
26254;DHT22;53339;51.378;0.094;2022-07-22T00:09:56;19.50;64.10
26254;DHT22;53339;51.378;0.094;2022-07-22T00:12:24;19.50;64.20
26254;DHT22;53339;51.378;0.094;2022-07-22T00:14:52;19.50;64.40
26254;DHT22;53339;51.378;0.094;2022-07-22T00:17:19;19.40;64.50
26254;DHT22;53339;51.378;0.094;2022-07-22T00:19:47;19.40;64.60
26254;DHT22;53339;51.378;0.094;2022-07-22T00:22:14;19.40;64.80
26254;DHT22;53339;51.378;0.094;2022-07-22T00:24:42;19.40;64.90
26254;DHT22;53339;51.378;0.094;2022-07-22T00:27:09;19.40;65.00
26254;DHT22;53339;51.378;0.094;2022-07-22T00:29:37;19.40;65.10
26254;DHT22;53339;51.378;0.094;2022-07-22T00:32:05;19.40;65.20
26254;DHT22;53339;51.378;0.094;2022-07-22T00:34:32;19.40;65.30
26254;DHT22;53339;51.378;0.094;2022-07-22T00:37:00;19.40;65.40
26254;DHT22;53339;51.378;0.094;2022-07-22T00:39:27;19.30;65.50
26254;DHT22;53339;51.378;0.094;2022-07-22T00:41:56;19.30;65.60
26254;DHT22;53339;51.378;0.094;2022-07-22T00:44:23;19.30;65.80
26254;DHT22;53339;51.378;0.094;2022-07-22T00:46:51;19.20;65.80
26254;DHT22;53339;51.378;0.094;2022-07-22T00:49:18;19.20;66.00
26254;DHT22;53339;51.378;0.094;2022-07-22T00:51:46;19.20;66.10
26254;DHT22;53339;51.378;0.094;2022-07-22T00:54:14;19.10;66.10
26254;DHT22;53339;51.378;0.094;2022-07-22T00:56:43;19.10;66.20
26254;DHT22;53339;51.378;0.094;2022-07-22T00:59:11;19.10;66.20
26254;DHT22;53339;51.378;0.094;2022-07-22T01:01:40;19.10;66.30
26254;DHT22;53339;51.378;0.094;2022-07-22T01:04:07;19.10;66.40
26254;DHT22;53339;51.378;0.094;2022-07-22T01:06:35;19.10;66.40
26254;DHT22;53339;51.378;0.094;2022-07-22T01:09:03;19.10;66.40
26254;DHT22;53339;51.378;0.094;2022-07-22T01:11:31;19.10;66.40
26254;DHT22;53339;51.378;0.094;2022-07-22T01:13:59;19.10;66.30
26254;DHT22;53339;51.378;0.094;2022-07-22T01:16:26;19.10;66.30
26254;DHT22;53339;51.378;0.094;2022-07-22T01:18:54;19.10;66.30
26254;DHT22;53339;51.378;0.094;2022-07-22T01:21:23;19.10;66.30
26254;DHT22;53339;51.378;0.094;2022-07-22T01:23:50;19.10;66.40
26254;DHT22;53339;51.378;0.094;2022-07-22T01:26:18;19.10;66.30
26254;DHT22;53339;51.378;0.094;2022-07-22T01:28:45;19.00;66.30
26254;DHT22;53339;51.378;0.094;2022-07-22T01:31:13;19.00;66.40
26254;DHT22;53339;51.378;0.094;2022-07-22T01:33:41;19.00;66.30
26254;DHT22;53339;51.378;0.094;2022-07-22T01:36:09;19.00;66.30
26254;DHT22;53339;51.378;0.094;2022-07-22T01:38:38;19.00;66.30
26254;DHT22;53339;51.378;0.094;2022-07-22T01:41:06;19.00;66.30
26254;DHT22;53339;51.378;0.094;2022-07-22T01:43:34;19.00;66.40
26254;DHT22;53339;51.378;0.094;2022-07-22T01:46:02;19.00;66.40
26254;DHT22;53339;51.378;0.094;2022-07-22T01:48:31;19.00;66.40
26254;DHT22;53339;51.378;0.094;2022-07-22T01:51:00;19.00;66.40
26254;DHT22;53339;51.378;0.094;2022-07-22T01:53:27;19.00;66.40
26254;DHT22;53339;51.378;0.094;2022-07-22T01:55:55;19.00;66.40
26254;DHT22;53339;51.378;0.094;2022-07-22T01:58:23;19.00;66.40
26254;DHT22;53339;51.378;0.094;2022-07-22T02:00:51;19.00;66.50
26254;DHT22;53339;51.378;0.094;2022-07-22T02:03:20;19.00;66.50
26254;DHT22;53339;51.378;0.094;2022-07-22T02:05:48;19.00;66.50
26254;DHT22;53339;51.378;0.094;2022-07-22T02:08:21;19.00;66.60
26254;DHT22;53339;51.378;0.094;2022-07-22T02:11:12;19.00;66.60
26254;DHT22;53339;51.378;0.094;2022-07-22T02:13:53;19.00;66.60
26254;DHT22;53339;51.378;0.094;2022-07-22T02:16:21;19.00;66.60
26254;DHT22;53339;51.378;0.094;2022-07-22T02:18:50;18.90;66.60
26254;DHT22;53339;51.378;0.094;2022-07-22T02:21:18;18.90;66.70
26254;DHT22;53339;51.378;0.094;2022-07-22T02:23:46;18.90;66.70
26254;DHT22;53339;51.378;0.094;2022-07-22T02:26:13;18.80;66.70
26254;DHT22;53339;51.378;0.094;2022-07-22T02:28:41;18.80;66.70
26254;DHT22;53339;51.378;0.094;2022-07-22T02:31:10;18.70;66.70
26254;DHT22;53339;51.378;0.094;2022-07-22T02:33:38;18.70;66.70
26254;DHT22;53339;51.378;0.094;2022-07-22T02:36:06;18.70;66.80
26254;DHT22;53339;51.378;0.094;2022-07-22T02:38:35;18.60;66.90
26254;DHT22;53339;51.378;0.094;2022-07-22T02:41:03;18.60;66.90
26254;DHT22;53339;51.378;0.094;2022-07-22T02:43:33;18.50;67.00
26254;DHT22;53339;51.378;0.094;2022-07-22T02:46:01;18.50;67.10
26254;DHT22;53339;51.378;0.094;2022-07-22T02:48:29;18.40;67.10
26254;DHT22;53339;51.378;0.094;2022-07-22T02:50:57;18.40;67.20
26254;DHT22;53339;51.378;0.094;2022-07-22T02:53:28;18.40;67.30
26254;DHT22;53339;51.378;0.094;2022-07-22T02:55:57;18.40;67.30
26254;DHT22;53339;51.378;0.094;2022-07-22T02:58:25;18.40;67.30
26254;DHT22;53339;51.378;0.094;2022-07-22T03:00:52;18.40;67.40
26254;DHT22;53339;51.378;0.094;2022-07-22T03:03:20;18.40;67.40
26254;DHT22;53339;51.378;0.094;2022-07-22T03:05:48;18.40;67.40
26254;DHT22;53339;51.378;0.094;2022-07-22T03:08:21;18.30;67.40
26254;DHT22;53339;51.378;0.094;2022-07-22T03:10:49;18.30;67.50
26254;DHT22;53339;51.378;0.094;2022-07-22T03:13:17;18.30;67.50
26254;DHT22;53339;51.378;0.094;2022-07-22T03:15:44;18.40;67.50
26254;DHT22;53339;51.378;0.094;2022-07-22T03:18:12;18.40;67.50
26254;DHT22;53339;51.378;0.094;2022-07-22T03:20:40;18.40;67.60
26254;DHT22;53339;51.378;0.094;2022-07-22T03:23:08;18.30;67.60
26254;DHT22;53339;51.378;0.094;2022-07-22T03:25:37;18.30;67.70
26254;DHT22;53339;51.378;0.094;2022-07-22T03:28:06;18.20;67.70
26254;DHT22;53339;51.378;0.094;2022-07-22T03:30:35;18.20;67.80
26254;DHT22;53339;51.378;0.094;2022-07-22T03:33:03;18.20;67.90
26254;DHT22;53339;51.378;0.094;2022-07-22T03:35:36;18.20;68.00
26254;DHT22;53339;51.378;0.094;2022-07-22T03:38:03;18.20;68.00
26254;DHT22;53339;51.378;0.094;2022-07-22T03:40:31;18.20;68.10
26254;DHT22;53339;51.378;0.094;2022-07-22T03:42:59;18.20;68.10
26254;DHT22;53339;51.378;0.094;2022-07-22T03:45:26;18.20;68.10
26254;DHT22;53339;51.378;0.094;2022-07-22T03:47:54;18.20;68.10
26254;DHT22;53339;51.378;0.094;2022-07-22T03:50:25;18.20;68.10
26254;DHT22;53339;51.378;0.094;2022-07-22T03:52:52;18.20;68.20
26254;DHT22;53339;51.378;0.094;2022-07-22T03:55:20;18.20;68.20
26254;DHT22;53339;51.378;0.094;2022-07-22T03:57:54;18.20;68.20
26254;DHT22;53339;51.378;0.094;2022-07-22T04:00:26;18.20;68.20
26254;DHT22;53339;51.378;0.094;2022-07-22T04:02:54;18.20;68.20
26254;DHT22;53339;51.378;0.094;2022-07-22T04:05:54;18.20;68.20
26254;DHT22;53339;51.378;0.094;2022-07-22T04:08:48;18.20;68.10
26254;DHT22;53339;51.378;0.094;2022-07-22T04:11:17;18.20;68.10
26254;DHT22;53339;51.378;0.094;2022-07-22T04:13:44;18.20;68.20
26254;DHT22;53339;51.378;0.094;2022-07-22T04:16:12;18.10;68.20
26254;DHT22;53339;51.378;0.094;2022-07-22T04:18:49;18.10;68.20
26254;DHT22;53339;51.378;0.094;2022-07-22T04:21:27;18.10;68.30
26254;DHT22;53339;51.378;0.094;2022-07-22T04:23:58;18.00;68.40
26254;DHT22;53339;51.378;0.094;2022-07-22T04:26:30;17.90;68.40
26254;DHT22;53339;51.378;0.094;2022-07-22T04:28:58;17.90;68.50
26254;DHT22;53339;51.378;0.094;2022-07-22T04:31:28;17.90;68.50
26254;DHT22;53339;51.378;0.094;2022-07-22T04:34:02;17.90;68.60
26254;DHT22;53339;51.378;0.094;2022-07-22T04:36:30;17.90;68.60
26254;DHT22;53339;51.378;0.094;2022-07-22T04:38:59;17.90;68.60
26254;DHT22;53339;51.378;0.094;2022-07-22T04:41:27;17.90;68.70
26254;DHT22;53339;51.378;0.094;2022-07-22T04:43:55;17.90;68.70
26254;DHT22;53339;51.378;0.094;2022-07-22T04:46:25;17.90;68.70
26254;DHT22;53339;51.378;0.094;2022-07-22T04:48:54;17.90;68.70
26254;DHT22;53339;51.378;0.094;2022-07-22T04:51:22;18.00;68.70
26254;DHT22;53339;51.378;0.094;2022-07-22T04:53:58;18.00;68.80
26254;DHT22;53339;51.378;0.094;2022-07-22T04:56:26;18.00;68.80
26254;DHT22;53339;51.378;0.094;2022-07-22T04:58:53;17.90;68.70
26254;DHT22;53339;51.378;0.094;2022-07-22T05:01:24;18.00;68.80
26254;DHT22;53339;51.378;0.094;2022-07-22T05:03:52;18.00;68.80
26254;DHT22;53339;51.378;0.094;2022-07-22T05:06:20;18.10;68.80
26254;DHT22;53339;51.378;0.094;2022-07-22T05:08:48;18.10;68.70
26254;DHT22;53339;51.378;0.094;2022-07-22T05:11:16;18.20;68.70
26254;DHT22;53339;51.378;0.094;2022-07-22T05:13:43;18.20;68.70
26254;DHT22;53339;51.378;0.094;2022-07-22T05:16:11;18.20;68.70
26254;DHT22;53339;51.378;0.094;2022-07-22T05:18:39;18.20;68.60
26254;DHT22;53339;51.378;0.094;2022-07-22T05:21:12;18.20;68.60
26254;DHT22;53339;51.378;0.094;2022-07-22T05:23:39;18.20;68.50
26254;DHT22;53339;51.378;0.094;2022-07-22T05:26:07;18.20;68.50
26254;DHT22;53339;51.378;0.094;2022-07-22T05:28:36;18.30;68.50
26254;DHT22;53339;51.378;0.094;2022-07-22T05:31:04;18.30;68.40
26254;DHT22;53339;51.378;0.094;2022-07-22T05:33:33;18.30;68.40
26254;DHT22;53339;51.378;0.094;2022-07-22T05:36:22;18.30;68.40
26254;DHT22;53339;51.378;0.094;2022-07-22T05:38:50;18.40;68.30
26254;DHT22;53339;51.378;0.094;2022-07-22T05:41:18;18.40;68.30
26254;DHT22;53339;51.378;0.094;2022-07-22T05:43:46;18.40;68.30
26254;DHT22;53339;51.378;0.094;2022-07-22T05:46:13;18.50;68.20
26254;DHT22;53339;51.378;0.094;2022-07-22T05:48:42;18.50;68.20
26254;DHT22;53339;51.378;0.094;2022-07-22T05:51:12;18.50;68.20
26254;DHT22;53339;51.378;0.094;2022-07-22T05:53:41;18.60;68.10
26254;DHT22;53339;51.378;0.094;2022-07-22T05:56:10;18.60;67.90
26254;DHT22;53339;51.378;0.094;2022-07-22T05:58:39;18.60;67.90
26254;DHT22;53339;51.378;0.094;2022-07-22T06:01:08;18.60;67.90
26254;DHT22;53339;51.378;0.094;2022-07-22T06:03:36;18.70;67.90
26254;DHT22;53339;51.378;0.094;2022-07-22T06:06:04;18.70;67.80
26254;DHT22;53339;51.378;0.094;2022-07-22T06:08:36;18.70;67.80
26254;DHT22;53339;51.378;0.094;2022-07-22T06:11:05;18.70;67.80
26254;DHT22;53339;51.378;0.094;2022-07-22T06:13:33;18.80;67.80
26254;DHT22;53339;51.378;0.094;2022-07-22T06:16:01;18.80;67.70
26254;DHT22;53339;51.378;0.094;2022-07-22T06:18:30;18.80;67.60
26254;DHT22;53339;51.378;0.094;2022-07-22T06:20:58;18.80;67.50
26254;DHT22;53339;51.378;0.094;2022-07-22T06:23:26;18.80;67.50
26254;DHT22;53339;51.378;0.094;2022-07-22T06:25:54;18.80;67.60
26254;DHT22;53339;51.378;0.094;2022-07-22T06:28:29;18.70;67.60
26254;DHT22;53339;51.378;0.094;2022-07-22T06:30:57;18.80;67.60
26254;DHT22;53339;51.378;0.094;2022-07-22T06:33:26;18.80;67.60
26254;DHT22;53339;51.378;0.094;2022-07-22T06:35:54;18.70;67.60
26254;DHT22;53339;51.378;0.094;2022-07-22T06:38:21;18.80;67.60
26254;DHT22;53339;51.378;0.094;2022-07-22T06:41:17;18.90;67.60
26254;DHT22;53339;51.378;0.094;2022-07-22T06:44:10;19.00;67.50
26254;DHT22;53339;51.378;0.094;2022-07-22T06:47:00;19.10;67.40
26254;DHT22;53339;51.378;0.094;2022-07-22T06:49:28;19.10;67.20
26254;DHT22;53339;51.378;0.094;2022-07-22T06:51:55;19.20;67.10
26254;DHT22;53339;51.378;0.094;2022-07-22T06:54:23;19.20;67.00
26254;DHT22;53339;51.378;0.094;2022-07-22T06:56:53;19.30;66.90
26254;DHT22;53339;51.378;0.094;2022-07-22T06:59:26;19.30;66.80
26254;DHT22;53339;51.378;0.094;2022-07-22T07:01:54;19.30;66.70
26254;DHT22;53339;51.378;0.094;2022-07-22T07:04:22;19.40;66.40
26254;DHT22;53339;51.378;0.094;2022-07-22T07:06:50;19.40;66.20
26254;DHT22;53339;51.378;0.094;2022-07-22T07:09:33;19.40;66.10
26254;DHT22;53339;51.378;0.094;2022-07-22T07:12:08;19.40;66.10
26254;DHT22;53339;51.378;0.094;2022-07-22T07:15:01;19.40;66.20
26254;DHT22;53339;51.378;0.094;2022-07-22T07:17:49;19.40;66.10
26254;DHT22;53339;51.378;0.094;2022-07-22T07:20:17;19.40;65.90
26254;DHT22;53339;51.378;0.094;2022-07-22T07:22:45;19.40;65.80
26254;DHT22;53339;51.378;0.094;2022-07-22T07:25:13;19.40;65.70
26254;DHT22;53339;51.378;0.094;2022-07-22T07:27:48;19.40;65.60
26254;DHT22;53339;51.378;0.094;2022-07-22T07:30:17;19.40;65.50
26254;DHT22;53339;51.378;0.094;2022-07-22T07:32:44;19.40;65.30
26254;DHT22;53339;51.378;0.094;2022-07-22T07:35:12;19.50;65.20
26254;DHT22;53339;51.378;0.094;2022-07-22T07:37:39;19.50;65.00
26254;DHT22;53339;51.378;0.094;2022-07-22T07:40:07;19.60;64.90
26254;DHT22;53339;51.378;0.094;2022-07-22T07:42:35;19.60;64.80
26254;DHT22;53339;51.378;0.094;2022-07-22T07:45:10;19.70;64.70
26254;DHT22;53339;51.378;0.094;2022-07-22T07:47:38;19.80;64.50
26254;DHT22;53339;51.378;0.094;2022-07-22T07:50:07;19.80;64.20
26254;DHT22;53339;51.378;0.094;2022-07-22T07:52:40;19.80;64.00
26254;DHT22;53339;51.378;0.094;2022-07-22T07:55:10;19.90;64.00
26254;DHT22;53339;51.378;0.094;2022-07-22T07:57:40;19.90;63.90
26254;DHT22;53339;51.378;0.094;2022-07-22T08:00:12;20.10;63.60
26254;DHT22;53339;51.378;0.094;2022-07-22T08:02:40;20.30;63.30
26254;DHT22;53339;51.378;0.094;2022-07-22T08:05:10;20.50;62.90
26254;DHT22;53339;51.378;0.094;2022-07-22T08:07:38;20.70;62.30
26254;DHT22;53339;51.378;0.094;2022-07-22T08:10:09;20.90;62.30
26254;DHT22;53339;51.378;0.094;2022-07-22T08:13:17;21.00;61.90
26254;DHT22;53339;51.378;0.094;2022-07-22T08:16:18;21.10;61.70
26254;DHT22;53339;51.378;0.094;2022-07-22T08:18:46;21.10;61.80
26254;DHT22;53339;51.378;0.094;2022-07-22T08:21:15;21.10;61.40
26254;DHT22;53339;51.378;0.094;2022-07-22T08:23:55;21.00;61.30
26254;DHT22;53339;51.378;0.094;2022-07-22T08:26:23;21.00;61.30
26254;DHT22;53339;51.378;0.094;2022-07-22T08:28:57;21.00;61.40
26254;DHT22;53339;51.378;0.094;2022-07-22T08:31:27;21.00;61.30
26254;DHT22;53339;51.378;0.094;2022-07-22T08:33:56;21.00;61.50
26254;DHT22;53339;51.378;0.094;2022-07-22T08:36:28;21.10;61.30
26254;DHT22;53339;51.378;0.094;2022-07-22T08:38:56;21.30;61.10
26254;DHT22;53339;51.378;0.094;2022-07-22T08:41:25;21.60;60.70
26254;DHT22;53339;51.378;0.094;2022-07-22T08:43:53;21.80;60.40
26254;DHT22;53339;51.378;0.094;2022-07-22T08:46:21;22.00;60.00
26254;DHT22;53339;51.378;0.094;2022-07-22T08:49:21;22.10;59.90
26254;DHT22;53339;51.378;0.094;2022-07-22T08:51:52;22.20;59.70
26254;DHT22;53339;51.378;0.094;2022-07-22T08:54:35;22.20;58.90
26254;DHT22;53339;51.378;0.094;2022-07-22T08:57:04;22.20;58.40
26254;DHT22;53339;51.378;0.094;2022-07-22T08:59:32;22.30;58.50
26254;DHT22;53339;51.378;0.094;2022-07-22T09:04:31;22.40;58.50
26254;DHT22;53339;51.378;0.094;2022-07-22T09:06:59;22.40;58.60
26254;DHT22;53339;51.378;0.094;2022-07-22T09:09:32;22.40;58.60
26254;DHT22;53339;51.378;0.094;2022-07-22T09:12:24;22.60;58.60
26254;DHT22;53339;51.378;0.094;2022-07-22T09:15:05;22.70;58.40
26254;DHT22;53339;51.378;0.094;2022-07-22T09:17:43;22.80;58.20
26254;DHT22;53339;51.378;0.094;2022-07-22T09:20:22;22.90;57.80
26254;DHT22;53339;51.378;0.094;2022-07-22T09:23:18;23.00;57.30
26254;DHT22;53339;51.378;0.094;2022-07-22T09:25:50;23.00;57.40
26254;DHT22;53339;51.378;0.094;2022-07-22T09:28:28;23.10;57.20
26254;DHT22;53339;51.378;0.094;2022-07-22T09:31:26;23.30;57.10
26254;DHT22;53339;51.378;0.094;2022-07-22T09:34:03;23.40;56.00
26254;DHT22;53339;51.378;0.094;2022-07-22T09:36:31;23.30;56.20
26254;DHT22;53339;51.378;0.094;2022-07-22T09:38:58;23.20;56.40
26254;DHT22;53339;51.378;0.094;2022-07-22T09:41:27;23.10;56.50
26254;DHT22;53339;51.378;0.094;2022-07-22T09:43:55;23.10;56.00
26254;DHT22;53339;51.378;0.094;2022-07-22T09:46:35;23.00;56.50
26254;DHT22;53339;51.378;0.094;2022-07-22T09:49:31;23.10;56.40
26254;DHT22;53339;51.378;0.094;2022-07-22T09:52:19;23.30;56.10
26254;DHT22;53339;51.378;0.094;2022-07-22T09:55:06;23.50;56.00
26254;DHT22;53339;51.378;0.094;2022-07-22T09:57:36;23.50;55.50
26254;DHT22;53339;51.378;0.094;2022-07-22T10:00:05;23.50;55.40
26254;DHT22;53339;51.378;0.094;2022-07-22T10:02:50;23.60;55.20
26254;DHT22;53339;51.378;0.094;2022-07-22T10:05:25;23.70;55.00
26254;DHT22;53339;51.378;0.094;2022-07-22T10:07:55;23.70;54.70
26254;DHT22;53339;51.378;0.094;2022-07-22T10:10:25;23.70;54.50
26254;DHT22;53339;51.378;0.094;2022-07-22T10:12:55;23.70;54.30
26254;DHT22;53339;51.378;0.094;2022-07-22T10:15:24;23.80;54.40
26254;DHT22;53339;51.378;0.094;2022-07-22T10:18:09;23.90;54.00
26254;DHT22;53339;51.378;0.094;2022-07-22T10:20:41;24.10;53.80
26254;DHT22;53339;51.378;0.094;2022-07-22T10:23:10;24.20;53.10
26254;DHT22;53339;51.378;0.094;2022-07-22T10:28:28;24.40;52.30
26254;DHT22;53339;51.378;0.094;2022-07-22T10:33:50;24.70;51.90
26254;DHT22;53339;51.378;0.094;2022-07-22T10:36:39;24.70;51.90
26254;DHT22;53339;51.378;0.094;2022-07-22T10:39:13;24.70;51.20
26254;DHT22;53339;51.378;0.094;2022-07-22T10:41:43;24.70;51.70
26254;DHT22;53339;51.378;0.094;2022-07-22T10:44:47;24.80;51.50
26254;DHT22;53339;51.378;0.094;2022-07-22T10:47:52;24.90;51.20
26254;DHT22;53339;51.378;0.094;2022-07-22T10:53:05;24.90;50.90
26254;DHT22;53339;51.378;0.094;2022-07-22T10:55:34;24.70;50.80
26254;DHT22;53339;51.378;0.094;2022-07-22T11:01:04;24.40;51.10
26254;DHT22;53339;51.378;0.094;2022-07-22T11:03:33;24.20;51.50
26254;DHT22;53339;51.378;0.094;2022-07-22T11:08:49;23.80;52.00
26254;DHT22;53339;51.378;0.094;2022-07-22T11:11:17;23.70;52.30
26254;DHT22;53339;51.378;0.094;2022-07-22T11:13:45;23.50;52.50
26254;DHT22;53339;51.378;0.094;2022-07-22T11:16:22;23.30;52.90
26254;DHT22;53339;51.378;0.094;2022-07-22T11:19:00;23.10;53.10
26254;DHT22;53339;51.378;0.094;2022-07-22T11:21:32;23.00;53.40
26254;DHT22;53339;51.378;0.094;2022-07-22T11:24:07;22.80;54.00
26254;DHT22;53339;51.378;0.094;2022-07-22T11:29:27;22.60;56.10
26254;DHT22;53339;51.378;0.094;2022-07-22T11:31:57;22.30;56.90
26254;DHT22;53339;51.378;0.094;2022-07-22T11:34:25;22.20;57.90
26254;DHT22;53339;51.378;0.094;2022-07-22T11:36:54;22.00;58.60
26254;DHT22;53339;51.378;0.094;2022-07-22T11:39:27;21.90;59.20
26254;DHT22;53339;51.378;0.094;2022-07-22T11:41:57;21.80;59.80
26254;DHT22;53339;51.378;0.094;2022-07-22T11:44:27;21.70;60.10
26254;DHT22;53339;51.378;0.094;2022-07-22T11:46:56;21.60;60.50
26254;DHT22;53339;51.378;0.094;2022-07-22T11:49:31;21.50;60.90
26254;DHT22;53339;51.378;0.094;2022-07-22T11:52:05;21.40;61.00
26254;DHT22;53339;51.378;0.094;2022-07-22T11:54:34;21.30;61.10
26254;DHT22;53339;51.378;0.094;2022-07-22T11:57:02;21.30;61.60
26254;DHT22;53339;51.378;0.094;2022-07-22T11:59:30;21.30;62.00
26254;DHT22;53339;51.378;0.094;2022-07-22T12:01:58;21.30;61.90
26254;DHT22;53339;51.378;0.094;2022-07-22T12:04:26;21.30;62.10
26254;DHT22;53339;51.378;0.094;2022-07-22T12:06:56;21.30;62.00
26254;DHT22;53339;51.378;0.094;2022-07-22T12:09:26;21.40;62.10
26254;DHT22;53339;51.378;0.094;2022-07-22T12:11:56;21.40;62.00
26254;DHT22;53339;51.378;0.094;2022-07-22T12:14:28;21.40;61.80
26254;DHT22;53339;51.378;0.094;2022-07-22T12:17:07;21.50;61.90
26254;DHT22;53339;51.378;0.094;2022-07-22T12:19:38;21.40;61.80
26254;DHT22;53339;51.378;0.094;2022-07-22T12:22:09;21.50;61.80
26254;DHT22;53339;51.378;0.094;2022-07-22T12:24:45;21.40;61.70
26254;DHT22;53339;51.378;0.094;2022-07-22T12:27:15;21.40;61.90
26254;DHT22;53339;51.378;0.094;2022-07-22T12:29:48;21.30;62.10
26254;DHT22;53339;51.378;0.094;2022-07-22T12:34:57;21.20;62.50
26254;DHT22;53339;51.378;0.094;2022-07-22T12:37:29;21.10;62.90
26254;DHT22;53339;51.378;0.094;2022-07-22T12:42:39;20.80;63.70
26254;DHT22;53339;51.378;0.094;2022-07-22T12:45:16;20.70;63.90
26254;DHT22;53339;51.378;0.094;2022-07-22T12:53:00;20.60;64.90
26254;DHT22;53339;51.378;0.094;2022-07-22T12:55:52;20.50;65.20
26254;DHT22;53339;51.378;0.094;2022-07-22T12:58:20;20.50;65.30
26254;DHT22;53339;51.378;0.094;2022-07-22T13:00:54;20.60;65.30
26254;DHT22;53339;51.378;0.094;2022-07-22T13:03:22;20.60;65.40
26254;DHT22;53339;51.378;0.094;2022-07-22T13:05:58;20.60;65.40
26254;DHT22;53339;51.378;0.094;2022-07-22T13:08:27;20.60;65.40
26254;DHT22;53339;51.378;0.094;2022-07-22T13:11:08;20.60;65.40
26254;DHT22;53339;51.378;0.094;2022-07-22T13:13:35;20.60;65.20
26254;DHT22;53339;51.378;0.094;2022-07-22T13:16:03;20.70;65.30
26254;DHT22;53339;51.378;0.094;2022-07-22T13:18:31;20.60;65.70
26254;DHT22;53339;51.378;0.094;2022-07-22T13:20:58;20.60;65.70
26254;DHT22;53339;51.378;0.094;2022-07-22T13:23:26;20.70;65.80
26254;DHT22;53339;51.378;0.094;2022-07-22T13:25:53;20.70;65.90
26254;DHT22;53339;51.378;0.094;2022-07-22T13:28:22;20.70;66.00
26254;DHT22;53339;51.378;0.094;2022-07-22T13:30:50;20.70;65.80
26254;DHT22;53339;51.378;0.094;2022-07-22T13:33:18;20.80;66.00
26254;DHT22;53339;51.378;0.094;2022-07-22T13:35:45;20.90;66.10
26254;DHT22;53339;51.378;0.094;2022-07-22T13:38:13;21.10;65.90
26254;DHT22;53339;51.378;0.094;2022-07-22T13:40:43;21.20;65.50
26254;DHT22;53339;51.378;0.094;2022-07-22T13:43:22;21.40;65.40
26254;DHT22;53339;51.378;0.094;2022-07-22T13:45:51;21.50;65.30
26254;DHT22;53339;51.378;0.094;2022-07-22T13:48:19;21.90;65.00
26254;DHT22;53339;51.378;0.094;2022-07-22T13:50:48;22.50;64.70
26254;DHT22;53339;51.378;0.094;2022-07-22T13:53:15;23.60;63.60
26254;DHT22;53339;51.378;0.094;2022-07-22T13:55:43;25.00;60.40
26254;DHT22;53339;51.378;0.094;2022-07-22T13:58:11;26.20;58.70
26254;DHT22;53339;51.378;0.094;2022-07-22T14:00:40;27.10;55.70
26254;DHT22;53339;51.378;0.094;2022-07-22T14:03:08;28.10;54.80
26254;DHT22;53339;51.378;0.094;2022-07-22T14:05:35;28.90;53.30
26254;DHT22;53339;51.378;0.094;2022-07-22T14:08:03;29.30;51.90
26254;DHT22;53339;51.378;0.094;2022-07-22T14:10:31;29.50;51.10
26254;DHT22;53339;51.378;0.094;2022-07-22T14:12:58;30.00;50.40
26254;DHT22;53339;51.378;0.094;2022-07-22T14:15:26;30.60;47.50
26254;DHT22;53339;51.378;0.094;2022-07-22T14:17:53;30.70;46.90
26254;DHT22;53339;51.378;0.094;2022-07-22T14:20:21;30.50;47.20
26254;DHT22;53339;51.378;0.094;2022-07-22T14:22:51;29.90;46.80
26254;DHT22;53339;51.378;0.094;2022-07-22T14:25:18;29.10;46.80
26254;DHT22;53339;51.378;0.094;2022-07-22T14:27:47;28.50;46.70
26254;DHT22;53339;51.378;0.094;2022-07-22T14:30:15;28.00;47.60
26254;DHT22;53339;51.378;0.094;2022-07-22T14:32:43;27.60;48.60
26254;DHT22;53339;51.378;0.094;2022-07-22T14:35:10;28.10;48.10
26254;DHT22;53339;51.378;0.094;2022-07-22T14:37:38;28.80;47.40
26254;DHT22;53339;51.378;0.094;2022-07-22T14:40:06;29.60;46.40
26254;DHT22;53339;51.378;0.094;2022-07-22T14:42:34;30.20;44.60
26254;DHT22;53339;51.378;0.094;2022-07-22T14:45:01;30.70;44.00
26254;DHT22;53339;51.378;0.094;2022-07-22T14:47:30;31.10;43.40
26254;DHT22;53339;51.378;0.094;2022-07-22T14:49:57;30.90;43.10
26254;DHT22;53339;51.378;0.094;2022-07-22T14:52:25;30.20;43.00
26254;DHT22;53339;51.378;0.094;2022-07-22T14:54:52;29.30;43.80
26254;DHT22;53339;51.378;0.094;2022-07-22T14:57:20;28.40;44.80
26254;DHT22;53339;51.378;0.094;2022-07-22T14:59:47;27.60;45.50
26254;DHT22;53339;51.378;0.094;2022-07-22T15:02:15;27.00;46.30
26254;DHT22;53339;51.378;0.094;2022-07-22T15:04:43;26.40;47.00
26254;DHT22;53339;51.378;0.094;2022-07-22T15:07:11;26.00;47.50
26254;DHT22;53339;51.378;0.094;2022-07-22T15:09:38;25.70;47.90
26254;DHT22;53339;51.378;0.094;2022-07-22T15:12:06;25.60;48.30
26254;DHT22;53339;51.378;0.094;2022-07-22T15:14:53;25.40;48.50
26254;DHT22;53339;51.378;0.094;2022-07-22T15:17:21;25.30;48.80
26254;DHT22;53339;51.378;0.094;2022-07-22T15:19:48;25.30;49.00
26254;DHT22;53339;51.378;0.094;2022-07-22T15:22:16;25.40;49.10
26254;DHT22;53339;51.378;0.094;2022-07-22T15:24:43;25.60;49.00
26254;DHT22;53339;51.378;0.094;2022-07-22T15:27:11;25.80;48.80
26254;DHT22;53339;51.378;0.094;2022-07-22T15:29:38;26.00;48.40
26254;DHT22;53339;51.378;0.094;2022-07-22T15:32:06;26.00;48.40
26254;DHT22;53339;51.378;0.094;2022-07-22T15:34:34;26.00;48.50
26254;DHT22;53339;51.378;0.094;2022-07-22T15:37:01;26.10;48.30
26254;DHT22;53339;51.378;0.094;2022-07-22T15:39:29;26.10;48.20
26254;DHT22;53339;51.378;0.094;2022-07-22T15:41:56;26.60;48.00
26254;DHT22;53339;51.378;0.094;2022-07-22T15:44:24;26.90;47.70
26254;DHT22;53339;51.378;0.094;2022-07-22T15:46:52;27.10;47.10
26254;DHT22;53339;51.378;0.094;2022-07-22T15:49:22;27.20;46.90
26254;DHT22;53339;51.378;0.094;2022-07-22T15:51:50;27.10;46.50
26254;DHT22;53339;51.378;0.094;2022-07-22T15:54:17;26.70;46.80
26254;DHT22;53339;51.378;0.094;2022-07-22T15:56:45;26.40;47.30
26254;DHT22;53339;51.378;0.094;2022-07-22T15:59:12;26.00;48.00
26254;DHT22;53339;51.378;0.094;2022-07-22T16:01:58;25.70;48.50
26254;DHT22;53339;51.378;0.094;2022-07-22T16:04:26;25.30;49.10
26254;DHT22;53339;51.378;0.094;2022-07-22T16:06:54;24.90;49.70
26254;DHT22;53339;51.378;0.094;2022-07-22T16:09:22;24.60;50.20
26254;DHT22;53339;51.378;0.094;2022-07-22T16:11:53;24.30;50.80
26254;DHT22;53339;51.378;0.094;2022-07-22T16:14:21;24.00;51.30
26254;DHT22;53339;51.378;0.094;2022-07-22T16:16:49;23.70;51.80
26254;DHT22;53339;51.378;0.094;2022-07-22T16:19:16;23.40;52.20
26254;DHT22;53339;51.378;0.094;2022-07-22T16:21:45;23.10;52.60